Time;durP1;ratioP1;P1;durP2;ratioP2;P2;SDS_P1;SDS_P2;PMS_P1;PMS_P2;Temp;Humidity;BMP_temperature;BMP_pressure;BME280_temperature;BME280_humidity;BME280_pressure;Samples;Min_cycle;Max_cycle;Signal;HPM_P1;HPM_P2
2022/07/20 00:01:30;;;;;;;0.30;0.28;;;;;;;22.76;52.55;101220.75;10505561;28;20040;-77
2022/07/20 00:06:32;;;;;;;0.22;0.22;;;;;;;22.81;50.93;101223.28;10500708;28;20063;-77
2022/07/20 00:11:34;;;;;;;0.80;0.52;;;;;;;23.14;49.35;101221.72;10496360;28;20083;-77
2022/07/20 00:16:36;;;;;;;1.02;0.70;;;;;;;22.94;47.63;101213.38;10510385;28;20453;-76
2022/07/20 00:21:39;;;;;;;0.28;0.20;;;;;;;23.16;46.01;101218.19;10494144;28;20140;-77
2022/07/20 00:26:41;;;;;;;0.43;0.28;;;;;;;23.50;43.63;101220.06;10503267;28;20048;-77
2022/07/20 00:31:43;;;;;;;0.80;0.40;;;;;;;23.77;42.30;101211.56;10481106;28;20040;-77
2022/07/20 00:36:44;;;;;;;0.75;0.30;;;;;;;24.01;41.59;101209.25;10493820;28;20062;-77
2022/07/20 00:41:46;;;;;;;3.08;0.60;;;;;;;24.11;40.23;101209.00;10512725;28;20040;-77
2022/07/20 00:46:48;;;;;;;1.20;0.68;;;;;;;24.23;40.18;101203.44;10512931;28;20044;-77
2022/07/20 00:51:49;;;;;;;1.73;0.75;;;;;;;24.39;39.86;101202.09;10508285;28;20530;-77
2022/07/20 00:56:51;;;;;;;1.45;0.35;;;;;;;24.19;40.55;101199.13;10509561;28;20048;-77
2022/07/20 01:01:53;;;;;;;0.10;0.10;;;;;;;24.15;41.75;101194.88;10492394;28;20060;-77
2022/07/20 01:06:56;;;;;;;0.20;0.10;;;;;;;23.10;52.78;101199.03;10492503;28;20136;-77
2022/07/20 01:11:57;;;;;;;0.28;0.25;;;;;;;23.14;49.13;101189.31;10483898;28;20457;-77
2022/07/20 01:16:59;;;;;;;0.13;0.13;;;;;;;22.52;53.03;101190.59;10502772;28;20055;-77
2022/07/20 01:22:01;;;;;;;0.10;0.10;;;;;;;22.10;56.75;101186.06;10505043;28;20041;-77
2022/07/20 01:27:04;;;;;;;0.05;0.05;;;;;;;21.68;60.53;101199.88;10504375;28;20041;-78
2022/07/20 01:32:06;;;;;;;0.40;0.38;;;;;;;21.85;55.77;101183.88;10501534;28;20032;-78
2022/07/20 01:37:07;;;;;;;0.85;0.40;;;;;;;21.59;58.99;101186.03;10502596;28;20044;-77
2022/07/20 01:42:12;;;;;;;1.95;0.52;;;;;;;21.72;55.23;101192.81;10500900;28;20036;-77
2022/07/20 01:47:13;;;;;;;0.10;0.10;;;;;;;21.86;54.30;101185.59;10502798;28;20045;-78
2022/07/20 01:52:15;;;;;;;0.40;0.30;;;;;;;21.97;55.02;101188.03;10477925;28;20070;-77
2022/07/20 01:57:17;;;;;;;0.10;0.10;;;;;;;21.73;58.69;101186.69;10484145;28;20044;-77
2022/07/20 02:02:18;;;;;;;0.20;0.20;;;;;;;21.65;58.57;101188.56;10504024;28;20043;-77
2022/07/20 02:07:20;;;;;;;0.10;0.10;;;;;;;21.52;58.81;101191.34;10497924;28;20061;-78
2022/07/20 02:12:22;;;;;;;0.52;0.30;;;;;;;21.40;57.25;101191.53;10495260;28;20041;-78
2022/07/20 02:17:23;;;;;;;0.25;0.20;;;;;;;21.01;65.30;101191.19;10486379;28;20055;-77
2022/07/20 02:22:25;;;;;;;1.13;0.28;;;;;;;20.38;68.95;101182.28;10502505;28;20049;-77
2022/07/20 02:27:27;;;;;;;0.25;0.25;;;;;;;20.64;66.44;101184.63;10505239;28;20510;-77
2022/07/20 02:32:35;;;;;;;0.30;0.30;;;;;;;20.67;67.22;101183.72;10502107;28;20036;-78
2022/07/20 02:37:36;;;;;;;0.10;0.10;;;;;;;20.45;69.46;101183.97;10474439;28;20165;-77
2022/07/20 02:42:38;;;;;;;0.00;0.00;;;;;;;20.03;73.99;101186.13;10484261;28;20495;-77
2022/07/20 02:47:44;;;;;;;0.40;0.30;;;;;;;19.58;80.87;101195.16;10485999;28;20057;-79
2022/07/20 02:52:46;;;;;;;2.25;0.57;;;;;;;19.14;83.72;101198.91;10492496;28;20037;-79
2022/07/20 02:57:48;;;;;;;0.40;0.20;;;;;;;19.27;81.81;101199.72;10529430;28;20037;-79
2022/07/20 03:02:51;;;;;;;0.60;0.28;;;;;;;19.17;86.33;101191.06;10525385;28;20052;-79
2022/07/20 03:07:52;;;;;;;0.03;0.03;;;;;;;19.30;79.23;101182.28;10516829;28;20127;-78
2022/07/20 03:12:54;;;;;;;1.05;0.75;;;;;;;19.41;81.31;101187.44;10524793;28;20041;-79
2022/07/20 03:17:56;;;;;;;1.77;1.17;;;;;;;19.28;82.88;101202.31;10500470;28;20051;-79
2022/07/20 03:22:59;;;;;;;0.20;0.17;;;;;;;19.15;83.81;101191.03;10503568;28;20043;-79
2022/07/20 03:28:00;;;;;;;0.45;0.32;;;;;;;19.08;85.86;101193.72;10499107;28;20459;-79
2022/07/20 03:33:02;;;;;;;0.47;0.30;;;;;;;18.39;97.30;101206.94;10496582;28;20044;-79
2022/07/20 03:38:04;;;;;;;0.25;0.10;;;;;;;18.74;83.96;101207.75;10467549;28;20132;-79
2022/07/20 03:43:06;;;;;;;0.10;0.10;;;;;;;18.41;95.86;101217.38;10466041;28;20040;-79
2022/07/20 03:48:08;;;;;;;0.10;0.10;;;;;;;18.27;93.51;101233.06;10496791;28;20041;-79
2022/07/20 03:53:10;;;;;;;0.65;0.10;;;;;;;18.33;92.74;101229.53;10496547;28;20123;-78
2022/07/20 03:58:14;;;;;;;0.68;0.45;;;;;;;18.91;79.26;101232.91;10498508;28;20048;-79
2022/07/20 04:03:16;;;;;;;0.30;0.30;;;;;;;18.47;87.91;101216.50;10507541;28;20048;-78
2022/07/20 04:08:17;;;;;;;0.25;0.25;;;;;;;18.87;81.92;101224.22;10505976;28;20040;-79
2022/07/20 04:13:19;;;;;;;0.88;0.22;;;;;;;19.50;76.00;101225.69;10492828;28;20504;-78
2022/07/20 04:18:21;;;;;;;0.40;0.40;;;;;;;19.94;72.40;101237.63;10501123;28;20044;-78
2022/07/20 04:23:25;;;;;;;1.00;0.43;;;;;;;19.69;78.45;101243.88;10487239;28;20040;-79
2022/07/20 04:28:27;;;;;;;0.30;0.30;;;;;;;19.91;74.01;101253.34;10481380;28;20491;-79
2022/07/20 04:33:28;;;;;;;0.13;0.13;;;;;;;20.46;67.13;101251.13;10496708;28;20036;-79
2022/07/20 04:38:30;;;;;;;1.50;0.98;;;;;;;20.31;72.61;101266.97;10493567;28;20051;-79
2022/07/20 04:43:32;;;;;;;0.75;0.52;;;;;;;20.34;71.00;101264.31;10480182;28;20452;-79
2022/07/20 04:48:33;;;;;;;0.22;0.15;;;;;;;20.61;68.82;101264.06;10494684;28;20052;-80
2022/07/20 04:53:35;;;;;;;0.30;0.30;;;;;;;20.48;76.04;101277.28;10494690;28;20540;-79
2022/07/20 04:58:37;;;;;;;0.25;0.25;;;;;;;20.60;73.92;101283.25;10493651;28;20051;-79
2022/07/20 05:03:38;;;;;;;1.42;0.60;;;;;;;20.70;72.36;101297.13;10496571;28;20066;-79
2022/07/20 05:08:42;;;;;;;0.65;0.45;;;;;;;21.12;73.31;101303.72;10504722;28;20058;-79
2022/07/20 05:13:44;;;;;;;1.48;1.13;;;;;;;21.35;68.97;101320.03;10473188;28;20076;-79
2022/07/20 05:18:46;;;;;;;0.50;0.40;;;;;;;21.69;66.96;101313.50;10503929;28;20060;-80
2022/07/20 05:23:50;;;;;;;0.60;0.50;;;;;;;21.95;64.71;101320.13;10502483;28;20054;-79
2022/07/20 05:28:52;;;;;;;0.40;0.40;;;;;;;22.10;65.92;101326.91;10496683;28;20123;-80
2022/07/20 05:33:54;;;;;;;0.77;0.65;;;;;;;22.37;68.22;101336.09;10467104;28;20508;-79
2022/07/20 05:38:56;;;;;;;0.95;0.70;;;;;;;22.58;72.81;101334.03;10492061;28;20086;-80
2022/07/20 05:43:58;;;;;;;1.90;0.85;;;;;;;22.72;77.93;101339.91;10493379;28;20051;-80
2022/07/20 05:49:00;;;;;;;2.60;1.83;;;;;;;23.02;81.64;101353.34;10491012;28;20106;-80
2022/07/20 05:54:02;;;;;;;4.60;2.25;;;;;;;23.16;90.13;101345.19;10491380;28;20487;-79
2022/07/20 05:59:04;;;;;;;3.58;1.73;;;;;;;23.37;89.56;101341.31;10490991;28;20398;-80
2022/07/20 06:04:06;;;;;;;2.53;1.95;;;;;;;23.68;90.27;101363.47;10491307;28;20052;-79
2022/07/20 06:09:09;;;;;;;2.08;1.85;;;;;;;23.67;90.90;101373.09;10490864;28;20496;-79
2022/07/20 06:14:22;;;;;;;1.45;1.17;;;;;;;23.81;94.15;101364.94;10491680;28;20043;-79
2022/07/20 06:19:24;;;;;;;7.22;2.20;;;;;;;23.96;93.49;101366.38;10480524;28;20037;-79
2022/07/20 06:24:26;;;;;;;4.78;1.75;;;;;;;24.16;93.64;101386.13;10491107;28;20450;-80
2022/07/20 06:29:27;;;;;;;4.15;2.47;;;;;;;24.39;95.34;101381.16;10490505;28;20040;-80
2022/07/20 06:34:29;;;;;;;2.55;1.90;;;;;;;24.52;96.31;101383.50;10490315;28;20056;-79
2022/07/20 06:39:31;;;;;;;6.07;2.30;;;;;;;24.69;99.59;101380.47;10489027;28;20492;-80
2022/07/20 06:44:32;;;;;;;4.00;2.58;;;;;;;24.87;94.57;101405.47;10485846;28;20033;-80
2022/07/20 06:49:34;;;;;;;1.88;1.58;;;;;;;24.89;97.59;101440.56;10485362;28;20063;-79
2022/07/20 06:54:36;;;;;;;3.38;2.30;;;;;;;25.38;98.14;101448.06;10492195;28;20063;-79
2022/07/20 06:59:38;;;;;;;4.80;2.35;;;;;;;25.54;90.40;101459.94;10492108;28;20037;-79
2022/07/20 07:04:39;;;;;;;3.72;2.22;;;;;;;25.75;86.81;101476.06;10492769;28;20048;-80
2022/07/20 07:09:41;;;;;;;6.65;2.72;;;;;;;26.35;88.98;101476.97;10493957;28;20086;-80
2022/07/20 07:14:42;;;;;;;3.15;2.67;;;;;;;26.60;85.11;101484.97;10497692;28;20049;-80
2022/07/20 07:19:44;;;;;;;5.18;2.78;;;;;;;26.94;80.99;101487.44;10502946;28;20032;-80
2022/07/20 07:24:46;;;;;;;4.47;2.90;;;;;;;26.86;76.77;101493.84;10501081;28;20057;-80
2022/07/20 07:29:47;;;;;;;3.28;2.55;;;;;;;26.92;75.04;101512.13;10499339;28;20474;-79
2022/07/20 07:34:49;;;;;;;4.30;3.05;;;;;;;26.74;73.78;101524.16;10502488;28;20052;-78
2022/07/20 07:39:51;;;;;;;4.63;2.90;;;;;;;27.01;74.05;101526.84;10496553;28;20491;-80
2022/07/20 07:44:53;;;;;;;8.30;2.17;;;;;;;26.28;74.12;101541.47;10504448;28;20518;-79
2022/07/20 07:49:55;;;;;;;3.97;3.00;;;;;;;27.10;69.14;101552.13;10495248;28;20480;-79
2022/07/20 07:54:57;;;;;;;8.73;3.38;;;;;;;27.24;71.26;101547.22;10497635;28;20041;-79
2022/07/20 07:59:59;;;;;;;5.90;3.63;;;;;;;26.96;69.51;101549.91;10495195;28;20376;-80
2022/07/20 08:05:11;;;;;;;4.30;2.85;;;;;;;27.28;69.29;101552.41;10494298;28;20049;-80
2022/07/20 08:10:14;;;;;;;2.63;2.17;;;;;;;27.76;68.62;101567.50;10495021;28;20040;-80
2022/07/20 08:15:15;;;;;;;3.92;2.17;;;;;;;27.74;64.02;101564.03;10495036;28;20040;-79
2022/07/20 08:20:21;;;;;;;3.17;1.98;;;;;;;27.74;64.68;101568.50;10497529;28;20048;-78
2022/07/20 08:25:23;;;;;;;1.85;1.67;;;;;;;28.57;67.27;101575.13;10494915;28;20127;-80
2022/07/20 08:30:26;;;;;;;3.38;1.92;;;;;;;28.16;61.43;101597.00;10496879;28;20032;-79
2022/07/20 08:35:47;;;;;;;3.47;2.13;;;;;;;28.28;61.97;101606.28;10498053;28;20450;-78
2022/07/20 08:40:49;;;;;;;2.13;1.73;;;;;;;28.08;58.61;101618.47;10496080;28;20044;-78
2022/07/20 08:45:51;;;;;;;4.65;2.28;;;;;;;29.07;64.73;101601.47;10497171;28;20048;-79
2022/07/20 08:50:53;;;;;;;2.33;1.63;;;;;;;28.70;58.35;101604.72;10481043;28;20048;-79
2022/07/20 08:55:54;;;;;;;4.07;1.98;;;;;;;28.79;58.21;101607.84;10491040;28;20610;-78
2022/07/20 09:00:56;;;;;;;2.55;1.77;;;;;;;28.42;54.81;101606.59;10487003;28;20033;-78
2022/07/20 09:06:04;;;;;;;2.38;2.03;;;;;;;28.85;55.22;101605.91;10485920;28;20055;-78
2022/07/20 09:11:07;;;;;;;4.05;2.53;;;;;;;29.07;56.20;101603.22;10493178;22;20971;-79
2022/07/20 09:16:10;;;;;;;3.10;1.77;;;;;;;28.68;53.54;101604.75;10476442;28;20060;-78
2022/07/20 09:21:13;;;;;;;3.97;2.10;;;;;;;29.57;56.24;101599.41;10497547;28;20063;-79
2022/07/20 09:26:16;;;;;;;2.75;2.15;;;;;;;29.10;56.24;101611.94;10491921;28;20043;-79
2022/07/20 09:31:19;;;;;;;4.55;1.60;;;;;;;28.90;56.55;101614.53;10457306;28;20094;-80
2022/07/20 09:36:23;;;;;;;2.53;1.77;;;;;;;29.33;54.71;101606.63;10473175;28;20089;-77
2022/07/20 09:41:31;;;;;;;4.68;1.38;;;;;;;29.45;50.83;101600.78;10490360;28;20059;-77
2022/07/20 09:46:35;;;;;;;1.50;1.15;;;;;;;29.33;52.14;101586.25;10474503;28;20059;-78
2022/07/20 09:51:42;;;;;;;2.47;1.60;;;;;;;29.88;54.75;101576.81;10503932;28;20055;-78
2022/07/20 09:56:46;;;;;;;1.55;1.45;;;;;;;29.86;49.49;101578.66;10485330;28;20051;-78
2022/07/20 10:01:51;;;;;;;1.65;0.95;;;;;;;30.21;53.33;101601.00;10487668;28;20047;-77
2022/07/20 10:06:54;;;;;;;1.60;1.17;;;;;;;30.26;51.10;101610.56;10474527;28;20051;-78
2022/07/20 10:11:56;;;;;;;1.92;0.90;;;;;;;30.02;49.28;101616.03;10474698;28;20040;-78
2022/07/20 10:16:58;;;;;;;2.72;2.28;;;;;;;29.87;48.77;101623.75;10502573;28;20052;-77
2022/07/20 10:22:00;;;;;;;3.50;1.30;;;;;;;29.89;49.38;101615.72;10472267;28;20051;-78
2022/07/20 10:27:02;;;;;;;1.80;1.13;;;;;;;30.26;51.32;101614.09;10473727;28;20052;-78
2022/07/20 10:32:10;;;;;;;0.57;0.52;;;;;;;30.11;48.70;101615.63;10468293;28;20103;-78
2022/07/20 10:37:23;;;;;;;;;;;;;;;29.18;51.27;101642.59;10470874;28;20512;-77
2022/07/20 10:42:32;;;;;;;0.60;0.60;;;;;;;30.58;51.54;101670.22;10478920;28;20337;-78
2022/07/20 10:47:44;;;;;;;0.75;0.60;;;;;;;29.96;51.30;101661.50;10491885;28;20033;-78
2022/07/20 10:52:48;;;;;;;1.20;0.70;;;;;;;28.68;53.42;101678.97;10497229;28;20435;-77
2022/07/20 10:57:50;;;;;;;3.45;1.25;;;;;;;28.76;54.81;101666.34;10482585;28;20061;-78
2022/07/20 11:02:51;;;;;;;0.95;0.88;;;;;;;30.56;53.70;101674.78;10505523;28;20039;-78
2022/07/20 11:07:53;;;;;;;1.40;1.27;;;;;;;30.48;50.18;101666.25;10484261;28;20452;-77
2022/07/20 11:13:05;;;;;;;2.28;0.95;;;;;;;30.04;47.19;101681.50;10504256;28;20043;-78
2022/07/20 11:18:10;;;;;;;2.80;1.38;;;;;;;30.61;47.33;101659.47;10497439;28;20049;-78
2022/07/20 11:23:13;;;;;;;0.40;0.35;;;;;;;30.23;48.19;101657.59;10504930;28;20048;-78
2022/07/20 11:28:19;;;;;;;1.05;0.95;;;;;;;30.59;49.53;101648.03;10493546;28;20040;-79
2022/07/20 11:33:28;;;;;;;1.00;0.65;;;;;;;30.13;45.74;101642.13;10474328;28;20049;-77
2022/07/20 11:38:41;;;;;;;1.10;0.95;;;;;;;30.44;43.69;101646.03;10476882;28;20067;-78
2022/07/20 11:43:44;;;;;;;0.73;0.63;;;;;;;30.61;46.22;101634.66;10482829;28;20090;-77
2022/07/20 11:48:53;;;;;;;0.75;0.68;;;;;;;30.43;46.97;101633.69;10497520;28;20565;-78
2022/07/20 11:54:20;;;;;;;0.52;0.52;;;;;;;30.86;47.91;101639.69;10480166;28;20041;-78
2022/07/20 11:59:22;;;;;;;0.57;0.30;;;;;;;30.88;49.13;101637.78;10496973;28;20744;-78
2022/07/20 12:04:27;;;;;;;1.17;0.55;;;;;;;30.69;46.61;101644.00;10477612;28;20041;-78
2022/07/20 12:09:34;;;;;;;1.33;0.80;;;;;;;30.61;47.92;101640.84;10498384;28;20040;-78
2022/07/20 12:14:41;;;;;;;1.15;0.85;;;;;;;30.49;45.67;101652.03;10490003;28;20038;-77
2022/07/20 12:20:00;;;;;;;0.88;0.55;;;;;;;31.11;46.15;101647.34;10494162;28;20039;-78
2022/07/20 12:25:06;;;;;;;0.52;0.40;;;;;;;31.66;46.12;101634.03;10469389;28;20047;-78
2022/07/20 12:30:28;;;;;;;1.58;1.13;;;;;;;30.86;45.57;101640.53;10476497;28;20450;-78
2022/07/20 12:35:30;;;;;;;0.32;0.32;;;;;;;30.72;46.58;101647.47;10487601;28;20127;-78
2022/07/20 12:40:38;;;;;;;0.90;0.75;;;;;;;30.67;46.70;101635.22;10472791;28;20075;-78
2022/07/20 12:45:40;;;;;;;0.43;0.40;;;;;;;30.88;47.33;101637.78;10470109;28;20074;-78
2022/07/20 12:50:42;;;;;;;0.50;0.50;;;;;;;31.12;41.28;101634.91;10494394;28;20044;-78
2022/07/20 12:55:43;;;;;;;0.60;0.50;;;;;;;30.82;46.33;101636.31;10466439;28;20102;-78
2022/07/20 13:00:45;;;;;;;0.40;0.30;;;;;;;31.88;44.48;101629.28;10484522;28;20357;-77
2022/07/20 13:05:48;;;;;;;0.55;0.40;;;;;;;31.25;44.67;101630.69;10487538;28;20041;-78
2022/07/20 13:10:49;;;;;;;0.73;0.52;;;;;;;31.05;42.01;101633.44;10485327;28;20032;-78
2022/07/20 13:15:51;;;;;;;2.17;0.95;;;;;;;31.10;43.35;101634.09;10476676;28;20063;-78
2022/07/20 13:20:53;;;;;;;2.50;0.63;;;;;;;30.84;41.40;101637.06;10495675;28;20440;-78
2022/07/20 13:25:57;;;;;;;2.55;1.42;;;;;;;30.83;43.00;101635.34;10474027;28;20092;-77
2022/07/20 13:31:33;;;;;;;2.15;0.68;;;;;;;30.88;44.07;101637.78;10489414;28;20060;-78
2022/07/20 13:36:51;;;;;;;0.20;0.20;;;;;;;30.92;43.18;101638.50;10473108;28;20063;-77
2022/07/20 13:41:54;;;;;;;0.98;0.75;;;;;;;30.60;42.14;101639.13;10493355;28;20066;-78
2022/07/20 13:46:55;;;;;;;1.23;0.70;;;;;;;30.49;41.96;101639.59;10485606;28;20087;-76
2022/07/20 13:51:57;;;;;;;0.85;0.52;;;;;;;30.94;44.70;101637.47;10467061;28;20045;-79
2022/07/20 13:57:20;;;;;;;5.28;0.65;;;;;;;30.79;43.92;101639.09;10485522;28;20047;-77
2022/07/20 14:02:22;;;;;;;1.13;0.60;;;;;;;31.21;43.79;101637.13;10481464;28;20110;-79
2022/07/20 14:07:24;;;;;;;0.70;0.40;;;;;;;30.59;46.03;101626.75;10483837;28;20044;-79
2022/07/20 14:12:26;;;;;;;0.55;0.30;;;;;;;30.56;50.68;101629.56;10468876;28;20060;-78
2022/07/20 14:17:28;;;;;;;2.03;0.98;;;;;;;30.08;45.40;101631.75;10492601;28;20036;-79
2022/07/20 14:22:31;;;;;;;0.75;0.50;;;;;;;29.68;48.79;101622.84;10454334;28;20086;-79
2022/07/20 14:27:40;;;;;;;0.43;0.25;;;;;;;29.62;48.45;101647.84;10471816;28;20045;-79
2022/07/20 14:32:43;;;;;;;0.13;0.13;;;;;;;29.59;53.51;101640.88;10494701;28;20423;-79
2022/07/20 14:37:45;;;;;;;0.35;0.22;;;;;;;29.40;51.17;101640.78;10479132;28;20055;-79
2022/07/20 14:42:47;;;;;;;0.57;0.50;;;;;;;29.42;52.17;101633.66;10493298;28;20047;-78
2022/07/20 14:47:49;;;;;;;0.40;0.30;;;;;;;29.61;61.53;101627.53;10495429;28;20072;-78
2022/07/20 14:52:50;;;;;;;1.23;1.10;;;;;;;29.35;70.47;101634.81;10497608;28;20377;-78
2022/07/20 14:57:52;;;;;;;0.63;0.30;;;;;;;29.21;60.70;101627.41;10460530;28;20068;-78
2022/07/20 15:02:54;;;;;;;0.47;0.20;;;;;;;29.42;66.34;101622.16;10477626;28;20052;-78
2022/07/20 15:07:56;;;;;;;0.47;0.47;;;;;;;29.30;54.66;101612.91;10479670;28;20198;-78
2022/07/20 15:12:58;;;;;;;0.93;0.65;;;;;;;29.80;54.33;101605.50;10480124;28;20040;-78
2022/07/20 15:17:59;;;;;;;1.08;0.95;;;;;;;29.57;53.33;101596.75;10492819;28;20047;-78
2022/07/20 15:23:01;;;;;;;3.83;0.80;;;;;;;29.43;58.45;101592.91;10485022;28;20051;-78
2022/07/20 15:28:03;;;;;;;2.45;1.95;;;;;;;30.01;56.92;101583.31;10477039;28;20543;-78
2022/07/20 15:33:04;;;;;;;0.40;0.30;;;;;;;30.31;53.33;101585.50;10471715;28;20107;-78
2022/07/20 15:38:12;;;;;;;0.40;0.40;;;;;;;30.33;56.58;101590.72;10495061;28;20053;-78
2022/07/20 15:43:13;;;;;;;0.77;0.40;;;;;;;29.74;51.73;101602.19;10478238;28;20526;-78
2022/07/20 15:48:15;;;;;;;10.30;1.17;;;;;;;29.74;51.79;101590.69;10497493;28;20063;-77
2022/07/20 15:53:17;;;;;;;0.50;0.38;;;;;;;30.13;46.69;101575.69;10520475;28;20159;-77
2022/07/20 15:58:18;;;;;;;0.13;0.13;;;;;;;29.95;49.12;101578.28;10487386;28;20042;-77
2022/07/20 16:03:20;;;;;;;0.30;0.30;;;;;;;29.85;54.14;101580.47;10494819;28;20041;-77
2022/07/20 16:08:22;;;;;;;0.13;0.13;;;;;;;29.43;61.23;101576.09;10484881;28;20118;-77
2022/07/20 16:13:24;;;;;;;0.60;0.47;;;;;;;29.02;58.36;101555.66;10495783;28;20037;-77
2022/07/20 16:18:28;;;;;;;0.25;0.10;;;;;;;29.09;68.66;101535.91;10489556;28;20068;-78
2022/07/20 16:23:29;;;;;;;1.95;0.95;;;;;;;29.46;72.38;101543.25;10466001;28;20060;-78
2022/07/20 16:28:31;;;;;;;0.45;0.40;;;;;;;29.65;72.38;101544.19;10475470;28;20059;-78
2022/07/20 16:33:33;;;;;;;0.38;0.38;;;;;;;29.90;67.69;101533.31;10466354;28;20412;-78
2022/07/20 16:38:35;;;;;;;0.32;0.22;;;;;;;29.54;65.03;101541.13;10486274;28;20044;-78
2022/07/20 16:43:37;;;;;;;0.30;0.30;;;;;;;29.65;64.31;101557.47;10474197;28;20460;-78
2022/07/20 16:48:38;;;;;;;0.38;0.32;;;;;;;29.61;65.78;101553.19;10468328;28;20056;-78
2022/07/20 16:53:40;;;;;;;0.68;0.45;;;;;;;29.36;60.83;101558.72;10465641;28;20047;-78
2022/07/20 16:58:43;;;;;;;0.17;0.17;;;;;;;29.10;62.80;101574.78;10477038;28;20055;-79
2022/07/20 17:03:45;;;;;;;0.65;0.50;;;;;;;28.97;62.83;101584.19;10468522;28;20055;-78
2022/07/20 17:08:47;;;;;;;1.48;0.90;;;;;;;28.43;62.88;101600.38;10456439;28;20052;-79
2022/07/20 17:13:49;;;;;;;1.85;0.88;;;;;;;28.15;63.15;101601.44;10473677;28;20040;-78
2022/07/20 17:18:51;;;;;;;1.38;0.70;;;;;;;27.85;64.08;101604.25;10478683;28;20049;-79
2022/07/20 17:23:54;;;;;;;1.27;0.60;;;;;;;27.72;66.37;101600.31;10471384;28;20064;-78
2022/07/20 17:35:51;;;;;;;2.05;0.93;;;;;;;27.55;67.82;101599.13;10500968;22;20052;-78
2022/07/20 17:40:52;;;;;;;1.08;0.75;;;;;;;27.55;69.10;101595.63;10487788;28;20450;-78
2022/07/20 17:45:54;;;;;;;2.28;0.93;;;;;;;27.64;69.67;101605.03;10489356;28;20052;-79
2022/07/20 17:50:56;;;;;;;1.52;1.00;;;;;;;27.43;67.92;101606.63;10480864;28;20572;-78
2022/07/20 17:55:57;;;;;;;1.25;0.82;;;;;;;27.29;67.70;101594.69;10485330;28;20044;-78
2022/07/20 18:01:00;;;;;;;0.47;0.47;;;;;;;26.97;67.77;101590.47;10486173;28;20051;-77
2022/07/20 18:06:02;;;;;;;1.65;1.00;;;;;;;26.73;70.96;101593.78;10487013;28;20128;-78
2022/07/20 18:11:05;;;;;;;0.50;0.50;;;;;;;26.57;69.50;101606.59;10464399;28;20086;-77
2022/07/20 18:16:07;;;;;;;0.52;0.43;;;;;;;26.48;71.20;101598.94;10484999;28;20514;-77
2022/07/20 18:21:09;;;;;;;1.27;0.75;;;;;;;26.56;71.84;101593.44;10487171;28;20072;-78
2022/07/20 18:26:12;;;;;;;1.13;0.65;;;;;;;26.41;73.95;101594.75;10473909;28;20056;-77
2022/07/20 18:31:15;;;;;;;0.85;0.65;;;;;;;25.97;77.70;101600.41;10490028;28;20127;-77
2022/07/20 18:36:17;;;;;;;0.20;0.20;;;;;;;26.13;76.34;101591.19;10481560;28;20051;-78
2022/07/20 18:41:19;;;;;;;0.65;0.47;;;;;;;25.83;78.58;101598.13;10466196;28;20060;-77
2022/07/20 18:46:22;;;;;;;0.47;0.35;;;;;;;25.83;81.17;101584.94;10470969;28;20400;-78
2022/07/20 18:51:25;;;;;;;0.98;0.82;;;;;;;25.64;79.96;101572.25;10465338;28;20507;-78
2022/07/20 18:56:26;;;;;;;0.75;0.35;;;;;;;25.61;81.08;101567.03;10480213;28;20041;-78
2022/07/20 19:01:48;;;;;;;0.73;0.38;;;;;;;25.46;80.58;101549.88;10470465;28;20046;-77
2022/07/20 19:06:50;;;;;;;1.02;0.75;;;;;;;25.35;82.15;101544.81;10463140;28;20041;-78
2022/07/20 19:11:52;;;;;;;0.98;0.52;;;;;;;25.32;83.59;101552.81;10491307;28;20036;-78
2022/07/20 19:16:53;;;;;;;0.75;0.60;;;;;;;25.24;84.44;101562.69;10485480;28;20377;-78
2022/07/20 19:21:55;;;;;;;1.13;0.85;;;;;;;25.08;84.75;101577.16;10486012;28;20127;-77
2022/07/20 19:26:57;;;;;;;0.55;0.40;;;;;;;25.00;84.91;101590.53;10490771;28;20079;-77
2022/07/20 19:31:59;;;;;;;1.52;0.80;;;;;;;24.89;89.35;101584.63;10476915;28;20496;-78
2022/07/20 19:37:01;;;;;;;0.30;0.30;;;;;;;24.86;86.78;101598.75;10482840;28;20139;-78
2022/07/20 19:42:03;;;;;;;0.65;0.40;;;;;;;24.73;91.42;101592.03;10488070;28;20051;-78
2022/07/20 19:47:05;;;;;;;0.20;0.20;;;;;;;24.68;91.63;101606.19;10490343;28;20044;-77
2022/07/20 19:52:07;;;;;;;2.17;0.47;;;;;;;24.62;90.66;101601.00;10494135;28;20048;-77
2022/07/20 19:57:08;;;;;;;1.92;0.50;;;;;;;24.44;91.82;101586.44;10496469;28;20132;-77
2022/07/20 20:02:10;;;;;;;0.68;0.38;;;;;;;24.48;91.42;101587.25;10497208;28;20052;-77
2022/07/20 20:07:12;;;;;;;1.63;0.98;;;;;;;24.17;93.21;101577.34;10484618;28;20381;-77
2022/07/20 20:12:13;;;;;;;0.90;0.80;;;;;;;24.04;95.18;101590.78;10476079;28;20041;-78
2022/07/20 20:17:15;;;;;;;1.05;0.73;;;;;;;24.30;95.69;101628.00;10498249;28;20139;-77
2022/07/20 20:22:39;;;;;;;0.50;0.50;;;;;;;24.29;97.34;101642.94;10495639;28;20068;-76
2022/07/20 20:27:40;;;;;;;0.40;0.40;;;;;;;24.09;100.00;101640.69;10492735;28;20086;-77
2022/07/20 20:33:02;;;;;;;1.95;1.20;;;;;;;24.36;91.71;101651.56;10495320;28;20060;-77
2022/07/20 20:38:06;;;;;;;1.55;0.95;;;;;;;24.24;94.45;101655.31;10486475;28;20418;-77
2022/07/20 20:43:08;;;;;;;1.10;0.80;;;;;;;24.20;96.66;101665.03;10494887;28;20055;-77
2022/07/20 20:48:10;;;;;;;0.82;0.55;;;;;;;24.03;100.00;101653.97;10494013;28;20500;-77
2022/07/20 20:53:12;;;;;;;0.98;0.40;;;;;;;23.91;100.00;101655.03;10492517;28;20087;-77
2022/07/20 20:58:13;;;;;;;0.75;0.57;;;;;;;23.97;98.62;101649.69;10491039;28;20096;-77
2022/07/20 21:03:15;;;;;;;0.57;0.38;;;;;;;23.97;99.48;101644.44;10493945;28;20498;-77
2022/07/20 21:08:17;;;;;;;0.00;0.00;;;;;;;23.62;100.00;101653.78;10480554;28;20040;-77
2022/07/20 21:13:18;;;;;;;1.17;0.60;;;;;;;23.35;100.00;101640.16;10490427;28;20044;-77
2022/07/20 21:18:20;;;;;;;1.75;1.33;;;;;;;22.88;100.00;101691.66;10452108;28;20504;-78
2022/07/20 21:23:22;;;;;;;4.40;1.38;;;;;;;22.71;100.00;101721.63;10483084;28;20040;-78
2022/07/20 21:28:25;;;;;;;2.38;1.42;;;;;;;22.84;100.00;101731.97;10483128;28;20130;-78
2022/07/20 21:33:27;;;;;;;2.40;1.48;;;;;;;22.86;100.00;101748.59;10477681;28;20147;-78
2022/07/20 21:38:29;;;;;;;1.58;1.33;;;;;;;22.84;100.00;101753.88;10479022;28;20573;-78
2022/07/20 21:43:31;;;;;;;1.40;1.30;;;;;;;23.05;100.00;101749.25;10485729;28;20479;-78
2022/07/20 21:48:32;;;;;;;1.98;1.17;;;;;;;23.11;100.00;101757.03;10491161;28;20049;-78
2022/07/20 21:53:35;;;;;;;4.20;1.50;;;;;;;22.64;100.00;101772.47;10498976;28;20404;-78
2022/07/20 21:58:37;;;;;;;1.70;1.17;;;;;;;22.00;100.00;101798.41;10509302;28;20051;-78
2022/07/20 22:03:39;;;;;;;1.48;1.00;;;;;;;21.44;100.00;101832.78;10474844;28;20045;-78
2022/07/20 22:08:41;;;;;;;1.23;0.80;;;;;;;20.85;100.00;101853.97;10451935;28;20462;-77
2022/07/20 22:13:44;;;;;;;1.00;0.82;;;;;;;20.19;100.00;101893.19;10496564;28;20043;-78
2022/07/20 22:18:45;;;;;;;1.52;1.10;;;;;;;20.07;100.00;101899.25;10511086;28;20050;-78
2022/07/20 22:23:47;;;;;;;1.75;0.85;;;;;;;20.03;100.00;101903.59;10534648;28;20036;-77
2022/07/20 22:28:49;;;;;;;1.75;1.08;;;;;;;20.14;100.00;101898.44;10491449;28;20103;-78
2022/07/20 22:33:51;;;;;;;2.00;1.23;;;;;;;19.81;100.00;101881.75;10513741;28;20040;-78
2022/07/20 22:38:53;;;;;;;0.20;0.20;;;;;;;20.08;100.00;101872.22;10526350;28;20041;-77
2022/07/20 22:43:56;;;;;;;1.08;0.80;;;;;;;20.14;100.00;101869.66;10528666;28;20519;-77
2022/07/20 22:48:58;;;;;;;0.38;0.38;;;;;;;20.16;100.00;101875.75;10506527;28;20055;-77
2022/07/20 22:53:59;;;;;;;0.75;0.35;;;;;;;20.25;100.00;101886.22;10499243;28;20518;-77
2022/07/20 22:59:01;;;;;;;1.27;0.85;;;;;;;20.16;100.00;101878.34;10467684;28;20135;-77
2022/07/20 23:04:03;;;;;;;1.77;1.33;;;;;;;20.22;100.00;101887.97;10500847;28;20032;-77
2022/07/20 23:09:06;;;;;;;1.92;0.85;;;;;;;19.84;100.00;101902.72;10500003;28;20040;-78
2022/07/20 23:14:08;;;;;;;1.35;0.98;;;;;;;19.68;100.00;101974.94;10475767;28;20037;-77
2022/07/20 23:19:09;;;;;;;2.83;1.13;;;;;;;19.65;100.00;102001.94;10482280;28;20048;-76